createdAt,value
2023-02-28T00:00:01.829Z,1.50
2023-02-28T00:02:34.468Z,1.70
2023-02-28T00:05:04.337Z,1.50
2023-02-28T00:07:34.027Z,1.50
2023-02-28T00:10:03.751Z,1.70
2023-02-28T00:12:36.246Z,1.60
2023-02-28T00:15:06.562Z,1.50
2023-02-28T00:17:36.308Z,1.85
2023-02-28T00:20:09.197Z,1.50
2023-02-28T00:22:38.793Z,1.73
2023-02-28T00:25:10.631Z,1.65
2023-02-28T00:27:43.581Z,1.77
2023-02-28T00:30:16.530Z,1.70
2023-02-28T00:32:46.700Z,1.60
2023-02-28T00:35:16.769Z,1.40
2023-02-28T00:37:46.845Z,1.60
2023-02-28T00:40:16.500Z,1.63
2023-02-28T00:42:48.717Z,1.90
2023-02-28T00:45:18.474Z,1.83
2023-02-28T00:47:50.585Z,1.80
2023-02-28T00:50:21.948Z,1.60
2023-02-28T00:52:51.982Z,1.60
2023-02-28T00:55:21.578Z,1.40
2023-02-28T00:57:54.153Z,1.50
2023-02-28T01:00:24.190Z,1.70
2023-02-28T01:02:53.891Z,1.90
2023-02-28T01:05:23.492Z,1.50
2023-02-28T01:07:53.110Z,1.60
2023-02-28T01:10:22.888Z,1.67
2023-02-28T01:12:55.042Z,1.50
2023-02-28T01:15:24.635Z,2.00
2023-02-28T01:17:54.260Z,1.90
2023-02-28T01:20:25.298Z,2.00
2023-02-28T01:22:55.007Z,1.70
2023-02-28T01:25:25.253Z,1.73
2023-02-28T01:27:57.611Z,1.90
2023-02-28T01:30:27.189Z,1.65
2023-02-28T01:32:57.002Z,1.50
2023-02-28T01:35:28.906Z,1.80
2023-02-28T01:38:04.801Z,1.90
2023-02-28T01:40:42.178Z,1.98
2023-02-28T01:43:23.751Z,1.52
2023-02-28T01:45:53.583Z,1.52
2023-02-28T01:48:27.896Z,1.60
2023-02-28T01:51:02.356Z,1.65
2023-02-28T01:53:38.485Z,1.50
2023-02-28T01:56:11.003Z,1.40
2023-02-28T01:58:43.605Z,1.50
2023-02-28T02:01:22.695Z,1.67
2023-02-28T02:03:56.490Z,1.50
2023-02-28T02:06:31.738Z,1.48
2023-02-28T02:09:01.675Z,1.95
2023-02-28T02:11:31.606Z,2.50
2023-02-28T02:14:29.901Z,2.30
2023-02-28T02:17:22.140Z,3.70
2023-02-28T02:20:24.517Z,2.95
2023-02-28T02:23:17.704Z,3.45
2023-02-28T02:25:53.259Z,4.22
2023-02-28T02:29:00.454Z,1.80
2023-02-28T02:32:01.482Z,2.00
2023-02-28T02:34:46.084Z,2.42
2023-02-28T02:37:25.751Z,3.88
2023-02-28T02:40:02.029Z,3.42
2023-02-28T02:42:43.699Z,3.00
2023-02-28T02:45:19.627Z,2.85
2023-02-28T02:47:50.653Z,2.90
2023-02-28T02:50:27.810Z,1.98
2023-02-28T02:53:05.748Z,2.15
2023-02-28T02:55:40.417Z,2.00
2023-02-28T02:58:15.178Z,1.95
2023-02-28T03:00:50.206Z,2.15
2023-02-28T03:03:30.093Z,2.27
2023-02-28T03:06:05.018Z,2.30
2023-02-28T03:08:38.800Z,1.98
2023-02-28T03:11:13.327Z,2.33
2023-02-28T03:14:18.443Z,2.13
2023-02-28T03:17:04.062Z,2.15
2023-02-28T03:19:51.171Z,2.13
2023-02-28T03:22:52.051Z,2.25
2023-02-28T03:25:30.890Z,1.80
2023-02-28T03:28:09.133Z,1.95
2023-02-28T03:30:48.312Z,2.20
2023-02-28T03:33:24.138Z,2.63
2023-02-28T03:35:58.058Z,2.20
2023-02-28T03:38:35.371Z,2.05
2023-02-28T03:41:10.049Z,2.05
2023-02-28T03:43:45.304Z,2.20
2023-02-28T03:46:22.179Z,2.40
2023-02-28T03:48:57.467Z,2.20
2023-02-28T03:51:29.596Z,2.05
2023-02-28T03:54:09.301Z,2.20
2023-02-28T03:56:44.477Z,1.73
2023-02-28T03:59:20.229Z,2.38
2023-02-28T04:04:21.616Z,2.20
2023-02-28T04:06:54.203Z,2.03
2023-02-28T04:09:26.373Z,2.13
2023-02-28T04:11:56.696Z,2.03
2023-02-28T04:14:26.430Z,1.85
2023-02-28T04:16:56.056Z,2.13
2023-02-28T04:19:25.624Z,2.10
2023-02-28T04:21:57.007Z,2.33
2023-02-28T04:24:31.346Z,1.80
2023-02-28T04:27:02.005Z,2.20
2023-02-28T04:29:33.582Z,2.10
2023-02-28T04:32:04.605Z,2.22
2023-02-28T04:34:35.657Z,2.30
2023-02-28T04:37:13.431Z,1.95
2023-02-28T04:39:46.694Z,2.45
2023-02-28T04:42:16.648Z,2.20
2023-02-28T04:44:46.316Z,1.98
2023-02-28T04:47:15.918Z,2.15
2023-02-28T04:49:45.499Z,2.50
2023-02-28T04:52:15.098Z,2.08
2023-02-28T04:54:47.232Z,2.20
2023-02-28T04:57:16.853Z,2.90
2023-02-28T04:59:46.465Z,2.30
2023-02-28T05:02:16.066Z,3.10
2023-02-28T05:04:45.767Z,2.85
2023-02-28T05:07:15.380Z,5.28
2023-02-28T05:09:47.578Z,2.88
2023-02-28T05:12:17.226Z,3.17
2023-02-28T05:14:46.791Z,2.80
2023-02-28T05:17:16.324Z,2.63
2023-02-28T05:19:45.881Z,2.53
2023-02-28T05:22:20.043Z,2.42
2023-02-28T05:24:52.430Z,2.38
2023-02-28T05:27:22.153Z,2.80
2023-02-28T05:29:51.746Z,2.80
2023-02-28T05:32:21.563Z,2.97
2023-02-28T05:34:51.204Z,2.30
2023-02-28T05:37:22.650Z,2.47
2023-02-28T05:39:54.884Z,2.30
2023-02-28T05:42:24.488Z,2.33
2023-02-28T05:44:54.100Z,2.30
2023-02-28T05:47:23.752Z,3.13
2023-02-28T05:49:53.330Z,2.60
2023-02-28T05:52:22.914Z,2.50
2023-02-28T05:54:55.066Z,2.35
2023-02-28T05:57:25.013Z,3.05
2023-02-28T05:59:54.994Z,3.20
2023-02-28T06:02:24.774Z,2.65
2023-02-28T06:04:54.454Z,2.65
2023-02-28T06:07:24.011Z,3.00
2023-02-28T06:09:56.202Z,3.45
2023-02-28T06:12:25.804Z,2.80
2023-02-28T06:14:55.399Z,2.55
2023-02-28T06:17:24.960Z,2.53
2023-02-28T06:19:54.646Z,3.00
2023-02-28T06:22:24.375Z,3.10
2023-02-28T06:24:58.060Z,2.88
2023-02-28T06:27:27.717Z,2.80
2023-02-28T06:29:58.457Z,2.47
2023-02-28T06:32:28.194Z,3.20
2023-02-28T06:34:59.072Z,4.43
2023-02-28T06:37:29.771Z,3.45
2023-02-28T06:40:01.997Z,5.97
2023-02-28T06:42:33.387Z,4.57
2023-02-28T06:45:04.404Z,3.33
2023-02-28T06:47:34.964Z,3.40
2023-02-28T06:50:04.697Z,3.75
2023-02-28T06:52:37.269Z,4.50
2023-02-28T06:55:11.499Z,2.92
2023-02-28T06:57:42.016Z,8.57
2023-02-28T07:00:13.804Z,3.55
2023-02-28T07:02:43.353Z,2.70
2023-02-28T07:05:13.012Z,2.45
2023-02-28T07:07:45.377Z,3.00
2023-02-28T07:10:20.293Z,3.22
2023-02-28T07:12:50.079Z,4.45
2023-02-28T07:15:19.876Z,5.72
2023-02-28T07:17:49.466Z,5.65
2023-02-28T07:20:19.723Z,8.05
2023-02-28T07:22:56.180Z,9.43
2023-02-28T07:25:29.873Z,4.55
2023-02-28T07:28:01.283Z,2.83
2023-02-28T07:30:30.918Z,2.00
2023-02-28T07:33:00.467Z,1.90
2023-02-28T07:35:30.123Z,2.25
2023-02-28T07:38:01.817Z,1.77
2023-02-28T07:40:34.116Z,2.22
2023-02-28T07:43:04.345Z,2.10
2023-02-28T07:45:35.591Z,2.95
2023-02-28T07:48:05.977Z,1.98
2023-02-28T07:50:35.733Z,2.10
2023-02-28T07:53:05.640Z,2.38
2023-02-28T07:55:37.805Z,2.03
2023-02-28T07:58:07.388Z,2.25
2023-02-28T08:00:37.097Z,2.50
2023-02-28T08:03:06.972Z,2.35
2023-02-28T08:05:36.565Z,2.10
2023-02-28T08:08:06.285Z,1.90
2023-02-28T08:10:38.700Z,1.77
2023-02-28T08:13:08.258Z,2.33
2023-02-28T08:15:37.889Z,2.00
2023-02-28T08:18:08.499Z,2.38
2023-02-28T08:20:40.875Z,2.85
2023-02-28T08:23:10.447Z,2.35
2023-02-28T08:25:42.634Z,2.78
2023-02-28T08:28:12.198Z,2.33
2023-02-28T08:30:42.143Z,2.08
2023-02-28T08:33:11.777Z,2.25
2023-02-28T08:35:41.412Z,2.92
2023-02-28T08:38:11.260Z,2.50
2023-02-28T08:40:43.830Z,2.40
2023-02-28T08:43:13.451Z,2.67
2023-02-28T08:45:43.057Z,2.40
2023-02-28T08:48:12.658Z,2.45
2023-02-28T08:50:43.053Z,3.22
2023-02-28T08:53:13.701Z,3.33
2023-02-28T08:55:46.183Z,2.45
2023-02-28T08:58:15.777Z,2.30
2023-02-28T09:00:45.468Z,2.50
2023-02-28T09:03:15.089Z,2.53
2023-02-28T09:05:44.648Z,2.83
2023-02-28T09:08:14.208Z,2.40
2023-02-28T09:10:46.372Z,2.72
2023-02-28T09:13:15.929Z,2.25
2023-02-28T09:15:45.544Z,2.85
2023-02-28T09:18:15.739Z,2.20
2023-02-28T09:20:46.749Z,2.20
2023-02-28T09:23:16.837Z,2.30
2023-02-28T09:25:53.288Z,2.28
2023-02-28T09:28:23.807Z,1.90
2023-02-28T09:30:55.456Z,2.35
2023-02-28T09:33:25.664Z,2.22
2023-02-28T09:36:02.166Z,2.38
2023-02-28T09:38:32.266Z,2.05
2023-02-28T09:41:07.399Z,2.28
2023-02-28T09:43:39.761Z,2.42
2023-02-28T09:46:18.288Z,2.08
2023-02-28T09:48:50.789Z,1.98
2023-02-28T09:51:34.140Z,2.97
2023-02-28T09:54:04.007Z,4.35
2023-02-28T09:56:40.335Z,2.13
2023-02-28T09:59:19.628Z,1.95
2023-02-28T10:01:56.999Z,1.42
2023-02-28T10:04:44.122Z,1.60
2023-02-28T10:07:26.405Z,1.63
2023-02-28T10:09:59.066Z,1.13
2023-02-28T10:12:33.536Z,1.42
2023-02-28T10:15:05.052Z,1.67
2023-02-28T10:17:54.925Z,1.77
2023-02-28T10:20:33.762Z,1.20
2023-02-28T10:23:09.018Z,2.30
2023-02-28T10:25:41.124Z,2.13
2023-02-28T10:28:18.933Z,1.80
2023-02-28T10:30:51.766Z,1.92
2023-02-28T10:33:25.660Z,1.58
2023-02-28T10:35:56.400Z,1.83
2023-02-28T10:38:28.575Z,1.73
2023-02-28T10:41:08.644Z,1.98
2023-02-28T10:43:42.232Z,1.60
2023-02-28T10:46:26.845Z,2.00
2023-02-28T10:49:07.765Z,1.95
2023-02-28T10:51:43.200Z,2.00
2023-02-28T10:54:20.519Z,2.08
2023-02-28T10:57:10.160Z,1.60
2023-02-28T10:59:42.322Z,1.50
2023-02-28T11:05:32.487Z,1.55
2023-02-28T11:08:09.891Z,1.40
2023-02-28T11:10:40.132Z,1.40
2023-02-28T11:13:10.456Z,1.65
2023-02-28T11:15:42.647Z,1.60
2023-02-28T11:18:27.213Z,1.90
2023-02-28T11:21:00.015Z,1.63
2023-02-28T11:23:33.017Z,2.22
2023-02-28T11:26:05.745Z,1.80
2023-02-28T11:28:38.243Z,2.05
2023-02-28T11:31:23.382Z,2.00
2023-02-28T11:33:54.511Z,1.65
2023-02-28T11:36:27.857Z,2.13
2023-02-28T11:39:02.810Z,2.03
2023-02-28T11:41:44.095Z,1.60
2023-02-28T11:44:37.990Z,1.95
2023-02-28T11:47:18.080Z,1.90
2023-02-28T11:49:56.081Z,5.32
2023-02-28T11:52:39.562Z,2.30
2023-02-28T11:55:18.281Z,1.65
2023-02-28T11:58:13.252Z,2.08
2023-02-28T12:00:56.734Z,2.08
2023-02-28T12:03:36.149Z,1.83
2023-02-28T12:06:19.735Z,1.77
2023-02-28T12:09:01.463Z,2.28
2023-02-28T12:11:43.609Z,1.70
2023-02-28T12:14:39.325Z,2.20
2023-02-28T12:17:23.019Z,1.83
2023-02-28T12:20:04.176Z,2.00
2023-02-28T12:22:35.823Z,2.13
2023-02-28T12:25:42.096Z,2.10
2023-02-28T12:28:13.345Z,2.30
2023-02-28T12:30:50.462Z,1.98
2023-02-28T12:33:26.297Z,1.80
2023-02-28T12:36:00.514Z,2.10
2023-02-28T12:38:37.436Z,2.08
2023-02-28T12:41:12.967Z,2.08
2023-02-28T12:43:48.258Z,2.08
2023-02-28T12:46:24.207Z,1.65
2023-02-28T12:51:31.674Z,2.10
2023-02-28T12:54:10.960Z,1.75
2023-02-28T12:56:47.989Z,1.92
2023-02-28T12:59:26.172Z,2.17
2023-02-28T13:02:04.859Z,2.15
2023-02-28T13:04:56.341Z,2.08
2023-02-28T13:07:59.394Z,1.75
2023-02-28T13:10:42.756Z,1.75
2023-02-28T13:13:18.713Z,1.80
2023-02-28T13:16:07.250Z,1.80
2023-02-28T13:18:40.797Z,2.00
2023-02-28T13:21:12.528Z,2.05
2023-02-28T13:24:04.063Z,2.35
2023-02-28T13:27:03.882Z,1.70
2023-02-28T13:29:37.221Z,2.25
2023-02-28T13:32:23.387Z,2.03
2023-02-28T13:35:31.816Z,2.55
2023-02-28T13:38:20.385Z,2.30
2023-02-28T13:40:52.586Z,2.25
2023-02-28T13:43:34.685Z,2.30
2023-02-28T13:46:16.140Z,2.30
2023-02-28T13:48:45.998Z,3.00
2023-02-28T13:51:43.463Z,2.83
2023-02-28T13:54:36.808Z,2.58
2023-02-28T13:57:27.286Z,3.92
2023-02-28T14:00:09.731Z,2.40
2023-02-28T14:02:54.613Z,2.60
2023-02-28T14:05:27.228Z,2.45
2023-02-28T14:08:00.612Z,2.78
2023-02-28T14:10:33.634Z,2.45
2023-02-28T14:13:15.298Z,4.90
2023-02-28T14:15:49.492Z,2.97
2023-02-28T14:18:27.291Z,2.63
2023-02-28T14:21:02.280Z,3.05
2023-02-28T14:24:20.564Z,3.20
2023-02-28T14:27:31.908Z,2.85
2023-02-28T14:30:30.004Z,5.05
2023-02-28T14:33:16.657Z,2.53
2023-02-28T14:36:10.959Z,2.60
2023-02-28T14:38:47.078Z,2.92
2023-02-28T14:41:22.416Z,3.08
2023-02-28T14:43:54.554Z,2.88
2023-02-28T14:46:30.894Z,3.03
2023-02-28T14:49:00.884Z,2.65
2023-02-28T14:51:31.505Z,2.60
2023-02-28T14:54:05.368Z,2.72
2023-02-28T14:56:39.353Z,2.42
2023-02-28T14:59:26.790Z,2.25
2023-02-28T15:02:20.999Z,2.88
2023-02-28T15:04:58.471Z,2.47
2023-02-28T15:07:32.177Z,2.65
2023-02-28T15:10:21.226Z,2.35
2023-02-28T15:12:57.430Z,3.05
2023-02-28T15:15:36.081Z,2.75
2023-02-28T15:18:19.986Z,2.65
2023-02-28T15:20:49.873Z,2.28
2023-02-28T15:23:20.480Z,3.08
2023-02-28T15:25:50.632Z,2.40
2023-02-28T15:28:23.751Z,2.38
2023-02-28T15:30:59.632Z,2.47
2023-02-28T15:33:32.845Z,2.20
2023-02-28T15:36:18.544Z,2.75
2023-02-28T15:38:48.175Z,2.45
2023-02-28T15:41:28.694Z,2.40
2023-02-28T15:44:30.842Z,2.20
2023-02-28T15:47:06.509Z,2.55
2023-02-28T15:52:20.352Z,2.17
2023-02-28T15:54:51.280Z,2.40
2023-02-28T15:57:24.457Z,1.92
2023-02-28T15:59:57.750Z,2.90
2023-02-28T16:02:35.534Z,2.50
2023-02-28T16:05:29.135Z,2.25
2023-02-28T16:08:00.137Z,2.28
2023-02-28T16:10:32.146Z,2.28
2023-02-28T16:13:01.899Z,2.05
2023-02-28T16:15:34.623Z,2.15
2023-02-28T16:18:04.306Z,2.05
2023-02-28T16:20:36.452Z,2.33
2023-02-28T16:23:06.109Z,2.25
2023-02-28T16:25:40.394Z,1.98
2023-02-28T16:28:18.118Z,2.42
2023-02-28T16:30:47.791Z,2.20
2023-02-28T16:33:17.445Z,1.98
2023-02-28T16:35:49.739Z,2.50
2023-02-28T16:38:19.517Z,2.28
2023-02-28T16:40:49.252Z,2.30
2023-02-28T16:43:22.719Z,2.22
2023-02-28T16:45:52.357Z,2.50
2023-02-28T16:48:21.957Z,2.35
2023-02-28T16:50:54.937Z,2.25
2023-02-28T16:53:24.673Z,1.80
2023-02-28T16:55:54.524Z,2.35
2023-02-28T16:58:26.598Z,2.67
2023-02-28T17:00:56.198Z,2.58
2023-02-28T17:03:33.460Z,2.50
2023-02-28T17:06:08.666Z,2.35
2023-02-28T17:08:38.253Z,2.60
2023-02-28T17:11:08.318Z,2.10
2023-02-28T17:13:37.876Z,2.80
2023-02-28T17:16:08.933Z,2.65
2023-02-28T17:18:40.033Z,2.78
2023-02-28T17:21:17.168Z,2.63
2023-02-28T17:23:47.201Z,2.90
2023-02-28T17:26:20.936Z,3.60
2023-02-28T17:28:51.953Z,3.63
2023-02-28T17:31:22.183Z,4.05
2023-02-28T17:33:51.909Z,2.80
2023-02-28T17:36:26.891Z,2.90
2023-02-28T17:38:59.549Z,2.92
2023-02-28T17:41:31.432Z,2.55
2023-02-28T17:44:01.141Z,2.45
2023-02-28T17:46:31.123Z,2.78
2023-02-28T17:49:01.000Z,2.15
2023-02-28T17:51:33.256Z,2.67
2023-02-28T17:54:03.286Z,2.47
2023-02-28T17:56:33.189Z,3.03
2023-02-28T17:59:03.038Z,2.90
2023-02-28T18:01:32.718Z,3.10
2023-02-28T18:04:02.368Z,2.80
2023-02-28T18:06:48.707Z,3.17
2023-02-28T18:09:22.605Z,2.95
2023-02-28T18:11:52.724Z,3.13
2023-02-28T18:14:26.395Z,3.13
2023-02-28T18:16:57.623Z,3.25
2023-02-28T18:19:27.549Z,3.50
2023-02-28T18:21:59.750Z,3.97
2023-02-28T18:24:29.356Z,3.60
2023-02-28T18:26:58.987Z,4.53
2023-02-28T18:29:31.815Z,4.10
2023-02-28T18:32:02.438Z,4.00
2023-02-28T18:34:33.052Z,4.70
2023-02-28T18:37:05.242Z,5.15
2023-02-28T18:39:35.094Z,6.00
2023-02-28T18:42:04.740Z,7.13
2023-02-28T18:44:34.322Z,7.32
2023-02-28T18:47:04.084Z,6.85
2023-02-28T18:49:35.806Z,5.35
2023-02-28T18:52:08.106Z,6.57
2023-02-28T18:54:38.595Z,6.50
2023-02-28T18:57:08.419Z,4.53
2023-02-28T18:59:38.026Z,5.55
2023-02-28T19:02:07.700Z,7.05
2023-02-28T19:04:37.425Z,5.45
2023-02-28T19:07:09.774Z,6.40
2023-02-28T19:09:39.779Z,7.78
2023-02-28T19:12:09.809Z,7.97
2023-02-28T19:14:39.431Z,6.57
2023-02-28T19:17:09.050Z,6.97
2023-02-28T19:19:38.772Z,7.50
2023-02-28T19:22:11.116Z,7.22
2023-02-28T19:24:41.004Z,9.57
2023-02-28T19:27:10.652Z,13.63
2023-02-28T19:29:40.451Z,16.67
2023-02-28T19:32:10.140Z,13.38
2023-02-28T19:34:39.802Z,9.90
2023-02-28T19:37:12.921Z,9.73
2023-02-28T19:39:45.267Z,10.48
2023-02-28T19:42:17.115Z,9.02
2023-02-28T19:44:47.684Z,8.80
2023-02-28T19:47:17.365Z,8.60
2023-02-28T19:49:46.913Z,10.35
2023-02-28T19:52:19.323Z,12.75
2023-02-28T19:54:49.100Z,11.30
2023-02-28T19:57:18.848Z,24.67
2023-02-28T19:59:49.229Z,18.98
2023-02-28T20:02:21.767Z,19.42
2023-02-28T20:04:54.387Z,17.40
2023-02-28T20:07:26.655Z,12.77
2023-02-28T20:09:56.340Z,11.90
2023-02-28T20:12:26.283Z,11.27
2023-02-28T20:14:57.215Z,10.38
2023-02-28T20:17:27.358Z,8.85
2023-02-28T20:19:56.904Z,8.80
2023-02-28T20:22:29.230Z,8.98
2023-02-28T20:24:58.768Z,8.93
2023-02-28T20:27:28.393Z,8.55
2023-02-28T20:29:58.244Z,9.18
2023-02-28T20:32:28.753Z,8.73
2023-02-28T20:34:58.550Z,7.82
2023-02-28T20:37:31.000Z,12.02
2023-02-28T20:40:00.611Z,9.18
2023-02-28T20:42:30.177Z,8.82
2023-02-28T20:44:59.722Z,6.97
2023-02-28T20:47:29.506Z,6.88
2023-02-28T20:49:59.109Z,7.00
2023-02-28T20:52:31.301Z,5.95
2023-02-28T20:55:00.966Z,6.68
2023-02-28T20:57:31.855Z,6.13
2023-02-28T21:00:01.740Z,8.23
2023-02-28T21:02:31.582Z,8.18
2023-02-28T21:05:01.158Z,6.53
2023-02-28T21:07:33.343Z,7.22
2023-02-28T21:10:02.891Z,6.97
2023-02-28T21:12:32.452Z,12.60
2023-02-28T21:15:02.117Z,11.85
2023-02-28T21:17:31.863Z,17.20
2023-02-28T21:20:01.474Z,10.80
2023-02-28T21:22:33.684Z,6.85
2023-02-28T21:25:03.291Z,6.07
2023-02-28T21:27:32.861Z,7.47
2023-02-28T21:30:04.583Z,6.40
2023-02-28T21:32:34.243Z,7.25
2023-02-28T21:35:03.831Z,7.70
2023-02-28T21:37:36.106Z,6.05
2023-02-28T21:40:05.717Z,6.05
2023-02-28T21:42:35.416Z,5.80
2023-02-28T21:45:05.031Z,6.28
2023-02-28T21:47:34.590Z,7.88
2023-02-28T21:50:04.266Z,7.68
2023-02-28T21:52:36.441Z,7.38
2023-02-28T21:55:06.434Z,6.53
2023-02-28T21:57:36.365Z,6.40
2023-02-28T22:00:07.820Z,6.53
2023-02-28T22:02:41.871Z,6.22
2023-02-28T22:05:12.122Z,6.15
2023-02-28T22:07:44.450Z,5.97
2023-02-28T22:10:14.417Z,5.93
2023-02-28T22:12:44.007Z,5.90
2023-02-28T22:15:15.029Z,6.30
2023-02-28T22:17:45.316Z,6.03
2023-02-28T22:20:15.483Z,5.45
2023-02-28T22:22:47.931Z,5.43
2023-02-28T22:25:17.725Z,5.30
2023-02-28T22:27:47.366Z,5.80
2023-02-28T22:30:17.575Z,5.18
2023-02-28T22:32:47.160Z,5.88
2023-02-28T22:35:19.523Z,5.97
2023-02-28T22:37:53.007Z,4.97
2023-02-28T22:40:22.960Z,5.15
2023-02-28T22:42:52.522Z,5.03
2023-02-28T22:45:22.091Z,5.57
2023-02-28T22:47:51.837Z,5.45
2023-02-28T22:50:21.793Z,5.63
2023-02-28T22:52:54.057Z,5.43
2023-02-28T22:55:23.596Z,5.85
2023-02-28T22:57:53.204Z,5.43
2023-02-28T23:00:24.036Z,5.13
2023-02-28T23:02:53.635Z,4.63
2023-02-28T23:05:23.289Z,5.10
2023-02-28T23:07:56.100Z,5.45
2023-02-28T23:10:25.664Z,5.13
2023-02-28T23:12:55.237Z,4.88
2023-02-28T23:15:24.966Z,5.20
2023-02-28T23:17:54.857Z,5.40
2023-02-28T23:20:24.718Z,4.53
2023-02-28T23:22:56.842Z,5.40
2023-02-28T23:25:26.453Z,5.63
2023-02-28T23:27:56.046Z,6.00
2023-02-28T23:30:25.678Z,5.93
2023-02-28T23:32:55.358Z,5.75
2023-02-28T23:35:24.928Z,5.30
2023-02-28T23:37:59.366Z,5.40
2023-02-28T23:40:29.514Z,5.20
2023-02-28T23:42:59.338Z,4.40
2023-02-28T23:45:28.967Z,4.60
2023-02-28T23:47:58.621Z,4.75
2023-02-28T23:50:28.490Z,5.43
2023-02-28T23:53:00.687Z,5.18
2023-02-28T23:55:30.685Z,5.65
2023-02-28T23:58:00.280Z,4.90
